sensor_id;sensor_type;location;lat;lon;timestamp;P1;durP1;ratioP1;P2;durP2;ratioP2
48847;SDS011;75039;51.970;5.660;2023-12-20T00:01:11;2.30;;;1.13;;
48847;SDS011;75039;51.970;5.660;2023-12-20T00:03:38;2.08;;;1.15;;
48847;SDS011;75039;51.970;5.660;2023-12-20T00:06:08;1.45;;;0.90;;
48847;SDS011;75039;51.970;5.660;2023-12-20T00:08:35;2.03;;;1.00;;
48847;SDS011;75039;51.970;5.660;2023-12-20T00:11:02;1.50;;;0.93;;
48847;SDS011;75039;51.970;5.660;2023-12-20T00:13:29;1.60;;;1.10;;
48847;SDS011;75039;51.970;5.660;2023-12-20T00:15:55;1.35;;;0.70;;
48847;SDS011;75039;51.970;5.660;2023-12-20T00:18:22;2.05;;;1.13;;
48847;SDS011;75039;51.970;5.660;2023-12-20T00:20:49;1.38;;;1.10;;
48847;SDS011;75039;51.970;5.660;2023-12-20T00:23:16;3.17;;;1.15;;
48847;SDS011;75039;51.970;5.660;2023-12-20T00:25:43;1.90;;;1.00;;
48847;SDS011;75039;51.970;5.660;2023-12-20T00:28:09;1.55;;;1.02;;
48847;SDS011;75039;51.970;5.660;2023-12-20T00:30:36;1.30;;;1.00;;
48847;SDS011;75039;51.970;5.660;2023-12-20T00:33:03;2.08;;;0.93;;
48847;SDS011;75039;51.970;5.660;2023-12-20T00:35:30;2.30;;;1.10;;
48847;SDS011;75039;51.970;5.660;2023-12-20T00:37:57;1.20;;;1.00;;
48847;SDS011;75039;51.970;5.660;2023-12-20T00:40:24;1.98;;;1.00;;
48847;SDS011;75039;51.970;5.660;2023-12-20T00:42:51;3.00;;;1.02;;
48847;SDS011;75039;51.970;5.660;2023-12-20T00:45:18;2.55;;;1.23;;
48847;SDS011;75039;51.970;5.660;2023-12-20T00:47:45;1.77;;;0.85;;
48847;SDS011;75039;51.970;5.660;2023-12-20T00:50:12;1.58;;;0.80;;
48847;SDS011;75039;51.970;5.660;2023-12-20T00:52:39;1.38;;;0.90;;
48847;SDS011;75039;51.970;5.660;2023-12-20T00:55:06;1.42;;;0.75;;
48847;SDS011;75039;51.970;5.660;2023-12-20T00:57:33;1.70;;;0.90;;
48847;SDS011;75039;51.970;5.660;2023-12-20T01:00:00;2.05;;;1.23;;
48847;SDS011;75039;51.970;5.660;2023-12-20T01:02:27;1.65;;;0.88;;
48847;SDS011;75039;51.970;5.660;2023-12-20T01:04:53;2.15;;;1.15;;
48847;SDS011;75039;51.970;5.660;2023-12-20T01:07:21;1.25;;;0.85;;
48847;SDS011;75039;51.970;5.660;2023-12-20T01:09:48;1.70;;;0.90;;
48847;SDS011;75039;51.970;5.660;2023-12-20T01:12:14;1.52;;;0.73;;
48847;SDS011;75039;51.970;5.660;2023-12-20T01:14:41;2.08;;;1.00;;
48847;SDS011;75039;51.970;5.660;2023-12-20T01:17:08;1.85;;;1.00;;
48847;SDS011;75039;51.970;5.660;2023-12-20T01:19:35;1.50;;;0.77;;
48847;SDS011;75039;51.970;5.660;2023-12-20T01:22:03;2.38;;;0.95;;
48847;SDS011;75039;51.970;5.660;2023-12-20T01:24:29;2.20;;;0.82;;
48847;SDS011;75039;51.970;5.660;2023-12-20T01:26:56;1.77;;;0.80;;
48847;SDS011;75039;51.970;5.660;2023-12-20T01:29:23;1.75;;;0.90;;
48847;SDS011;75039;51.970;5.660;2023-12-20T01:31:50;1.20;;;0.70;;
48847;SDS011;75039;51.970;5.660;2023-12-20T01:34:17;2.08;;;0.75;;
48847;SDS011;75039;51.970;5.660;2023-12-20T01:36:44;1.88;;;0.98;;
48847;SDS011;75039;51.970;5.660;2023-12-20T01:39:11;1.17;;;0.65;;
48847;SDS011;75039;51.970;5.660;2023-12-20T01:41:50;1.20;;;0.80;;
48847;SDS011;75039;51.970;5.660;2023-12-20T01:44:17;1.15;;;0.63;;
48847;SDS011;75039;51.970;5.660;2023-12-20T01:46:43;1.83;;;0.88;;
48847;SDS011;75039;51.970;5.660;2023-12-20T01:49:11;2.17;;;0.73;;
48847;SDS011;75039;51.970;5.660;2023-12-20T01:51:38;0.90;;;0.60;;
48847;SDS011;75039;51.970;5.660;2023-12-20T01:54:05;2.28;;;0.70;;
48847;SDS011;75039;51.970;5.660;2023-12-20T01:56:32;1.17;;;0.73;;
48847;SDS011;75039;51.970;5.660;2023-12-20T01:59:00;2.00;;;0.80;;
48847;SDS011;75039;51.970;5.660;2023-12-20T02:01:27;1.13;;;0.85;;
48847;SDS011;75039;51.970;5.660;2023-12-20T02:03:55;1.35;;;0.85;;
48847;SDS011;75039;51.970;5.660;2023-12-20T02:06:23;1.70;;;0.68;;
48847;SDS011;75039;51.970;5.660;2023-12-20T02:08:55;1.88;;;0.70;;
48847;SDS011;75039;51.970;5.660;2023-12-20T02:11:23;1.48;;;0.93;;
48847;SDS011;75039;51.970;5.660;2023-12-20T02:13:49;1.83;;;0.95;;
48847;SDS011;75039;51.970;5.660;2023-12-20T02:16:16;1.48;;;0.70;;
48847;SDS011;75039;51.970;5.660;2023-12-20T02:18:43;1.70;;;0.77;;
48847;SDS011;75039;51.970;5.660;2023-12-20T02:21:11;2.33;;;1.00;;
48847;SDS011;75039;51.970;5.660;2023-12-20T02:23:37;1.63;;;0.70;;
48847;SDS011;75039;51.970;5.660;2023-12-20T02:26:04;1.45;;;0.75;;
48847;SDS011;75039;51.970;5.660;2023-12-20T02:28:33;1.60;;;0.88;;
48847;SDS011;75039;51.970;5.660;2023-12-20T02:31:00;1.65;;;0.80;;
48847;SDS011;75039;51.970;5.660;2023-12-20T02:33:26;0.75;;;0.50;;
48847;SDS011;75039;51.970;5.660;2023-12-20T02:35:53;1.08;;;0.70;;
48847;SDS011;75039;51.970;5.660;2023-12-20T02:38:20;1.65;;;0.70;;
48847;SDS011;75039;51.970;5.660;2023-12-20T02:40:46;1.65;;;0.80;;
48847;SDS011;75039;51.970;5.660;2023-12-20T02:43:15;1.23;;;0.70;;
48847;SDS011;75039;51.970;5.660;2023-12-20T02:45:42;1.52;;;1.00;;
48847;SDS011;75039;51.970;5.660;2023-12-20T02:48:09;1.00;;;0.63;;
48847;SDS011;75039;51.970;5.660;2023-12-20T02:50:36;1.17;;;0.70;;
48847;SDS011;75039;51.970;5.660;2023-12-20T02:53:02;1.35;;;0.73;;
48847;SDS011;75039;51.970;5.660;2023-12-20T02:55:29;0.93;;;0.65;;
48847;SDS011;75039;51.970;5.660;2023-12-20T02:57:56;1.33;;;0.60;;
48847;SDS011;75039;51.970;5.660;2023-12-20T03:00:22;0.90;;;0.70;;
48847;SDS011;75039;51.970;5.660;2023-12-20T03:02:49;1.23;;;0.60;;
48847;SDS011;75039;51.970;5.660;2023-12-20T03:05:16;1.35;;;0.80;;
48847;SDS011;75039;51.970;5.660;2023-12-20T03:07:43;0.95;;;0.60;;
48847;SDS011;75039;51.970;5.660;2023-12-20T03:10:10;0.80;;;0.65;;
48847;SDS011;75039;51.970;5.660;2023-12-20T03:12:49;2.08;;;1.05;;
48847;SDS011;75039;51.970;5.660;2023-12-20T03:15:16;1.65;;;0.75;;
48847;SDS011;75039;51.970;5.660;2023-12-20T03:17:42;1.05;;;0.65;;
48847;SDS011;75039;51.970;5.660;2023-12-20T03:20:10;0.82;;;0.70;;
48847;SDS011;75039;51.970;5.660;2023-12-20T03:22:37;1.10;;;0.60;;
48847;SDS011;75039;51.970;5.660;2023-12-20T03:25:03;1.20;;;0.63;;
48847;SDS011;75039;51.970;5.660;2023-12-20T03:27:30;1.05;;;0.60;;
48847;SDS011;75039;51.970;5.660;2023-12-20T03:29:57;1.15;;;0.65;;
48847;SDS011;75039;51.970;5.660;2023-12-20T03:32:24;1.20;;;0.73;;
48847;SDS011;75039;51.970;5.660;2023-12-20T03:34:50;2.72;;;0.70;;
48847;SDS011;75039;51.970;5.660;2023-12-20T03:37:17;0.93;;;0.60;;
48847;SDS011;75039;51.970;5.660;2023-12-20T03:39:44;1.58;;;0.70;;
48847;SDS011;75039;51.970;5.660;2023-12-20T03:42:10;1.10;;;0.70;;
48847;SDS011;75039;51.970;5.660;2023-12-20T03:44:39;0.63;;;0.60;;
48847;SDS011;75039;51.970;5.660;2023-12-20T03:47:06;1.48;;;0.68;;
48847;SDS011;75039;51.970;5.660;2023-12-20T03:49:33;1.13;;;0.60;;
48847;SDS011;75039;51.970;5.660;2023-12-20T03:52:00;0.63;;;0.50;;
48847;SDS011;75039;51.970;5.660;2023-12-20T03:54:26;1.35;;;0.65;;
48847;SDS011;75039;51.970;5.660;2023-12-20T03:56:53;1.13;;;0.50;;
48847;SDS011;75039;51.970;5.660;2023-12-20T03:59:20;0.77;;;0.43;;
48847;SDS011;75039;51.970;5.660;2023-12-20T04:01:46;1.35;;;0.70;;
48847;SDS011;75039;51.970;5.660;2023-12-20T04:04:13;0.70;;;0.50;;
48847;SDS011;75039;51.970;5.660;2023-12-20T04:06:40;0.85;;;0.52;;
48847;SDS011;75039;51.970;5.660;2023-12-20T04:09:07;2.55;;;0.70;;
48847;SDS011;75039;51.970;5.660;2023-12-20T04:11:36;1.15;;;0.60;;
48847;SDS011;75039;51.970;5.660;2023-12-20T04:14:03;1.23;;;0.80;;
48847;SDS011;75039;51.970;5.660;2023-12-20T04:16:31;1.27;;;0.60;;
48847;SDS011;75039;51.970;5.660;2023-12-20T04:18:58;1.05;;;0.60;;
48847;SDS011;75039;51.970;5.660;2023-12-20T04:21:24;0.90;;;0.60;;
48847;SDS011;75039;51.970;5.660;2023-12-20T04:23:51;1.45;;;0.60;;
48847;SDS011;75039;51.970;5.660;2023-12-20T04:26:18;2.40;;;0.70;;
48847;SDS011;75039;51.970;5.660;2023-12-20T04:28:45;0.90;;;0.70;;
48847;SDS011;75039;51.970;5.660;2023-12-20T04:31:11;1.73;;;0.73;;
48847;SDS011;75039;51.970;5.660;2023-12-20T04:33:38;1.05;;;0.75;;
48847;SDS011;75039;51.970;5.660;2023-12-20T04:36:05;2.47;;;0.55;;
48847;SDS011;75039;51.970;5.660;2023-12-20T04:38:32;1.80;;;0.60;;
48847;SDS011;75039;51.970;5.660;2023-12-20T04:40:59;1.13;;;0.57;;
48847;SDS011;75039;51.970;5.660;2023-12-20T04:43:25;1.05;;;0.65;;
48847;SDS011;75039;51.970;5.660;2023-12-20T04:45:52;1.30;;;0.70;;
48847;SDS011;75039;51.970;5.660;2023-12-20T04:48:19;1.30;;;0.70;;
48847;SDS011;75039;51.970;5.660;2023-12-20T04:50:46;1.38;;;0.50;;
48847;SDS011;75039;51.970;5.660;2023-12-20T04:53:12;2.20;;;0.60;;
48847;SDS011;75039;51.970;5.660;2023-12-20T04:55:39;0.73;;;0.50;;
48847;SDS011;75039;51.970;5.660;2023-12-20T04:58:06;1.77;;;0.65;;
48847;SDS011;75039;51.970;5.660;2023-12-20T05:00:32;1.13;;;0.50;;
48847;SDS011;75039;51.970;5.660;2023-12-20T05:02:59;1.60;;;0.57;;
48847;SDS011;75039;51.970;5.660;2023-12-20T05:05:26;1.02;;;0.60;;
48847;SDS011;75039;51.970;5.660;2023-12-20T05:07:53;0.88;;;0.52;;
48847;SDS011;75039;51.970;5.660;2023-12-20T05:10:19;0.88;;;0.60;;
48847;SDS011;75039;51.970;5.660;2023-12-20T05:12:46;1.02;;;0.70;;
48847;SDS011;75039;51.970;5.660;2023-12-20T05:15:13;1.92;;;0.60;;
48847;SDS011;75039;51.970;5.660;2023-12-20T05:17:39;1.23;;;0.70;;
48847;SDS011;75039;51.970;5.660;2023-12-20T05:20:07;1.50;;;0.57;;
48847;SDS011;75039;51.970;5.660;2023-12-20T05:22:34;1.65;;;0.60;;
48847;SDS011;75039;51.970;5.660;2023-12-20T05:25:00;1.25;;;0.60;;
48847;SDS011;75039;51.970;5.660;2023-12-20T05:27:27;4.38;;;0.80;;
48847;SDS011;75039;51.970;5.660;2023-12-20T05:29:54;1.35;;;0.60;;
48847;SDS011;75039;51.970;5.660;2023-12-20T05:32:24;1.25;;;0.65;;
48847;SDS011;75039;51.970;5.660;2023-12-20T05:34:51;1.63;;;0.63;;
48847;SDS011;75039;51.970;5.660;2023-12-20T05:37:18;1.83;;;0.70;;
48847;SDS011;75039;51.970;5.660;2023-12-20T05:39:45;1.10;;;0.60;;
48847;SDS011;75039;51.970;5.660;2023-12-20T05:42:12;1.20;;;0.52;;
48847;SDS011;75039;51.970;5.660;2023-12-20T05:44:38;1.63;;;0.70;;
48847;SDS011;75039;51.970;5.660;2023-12-20T05:47:05;0.82;;;0.60;;
48847;SDS011;75039;51.970;5.660;2023-12-20T05:49:32;1.85;;;0.75;;
48847;SDS011;75039;51.970;5.660;2023-12-20T05:51:58;1.40;;;0.65;;
48847;SDS011;75039;51.970;5.660;2023-12-20T05:54:25;1.15;;;0.55;;
48847;SDS011;75039;51.970;5.660;2023-12-20T05:56:52;2.05;;;0.70;;
48847;SDS011;75039;51.970;5.660;2023-12-20T05:59:18;1.60;;;0.60;;
48847;SDS011;75039;51.970;5.660;2023-12-20T06:01:45;0.80;;;0.47;;
48847;SDS011;75039;51.970;5.660;2023-12-20T06:04:12;0.70;;;0.60;;
48847;SDS011;75039;51.970;5.660;2023-12-20T06:06:42;1.40;;;0.60;;
48847;SDS011;75039;51.970;5.660;2023-12-20T06:09:09;0.82;;;0.50;;
48847;SDS011;75039;51.970;5.660;2023-12-20T06:11:36;2.63;;;0.77;;
48847;SDS011;75039;51.970;5.660;2023-12-20T06:14:03;1.17;;;0.68;;
48847;SDS011;75039;51.970;5.660;2023-12-20T06:16:30;2.78;;;0.80;;
48847;SDS011;75039;51.970;5.660;2023-12-20T06:18:57;1.20;;;0.60;;
48847;SDS011;75039;51.970;5.660;2023-12-20T06:21:24;0.70;;;0.40;;
48847;SDS011;75039;51.970;5.660;2023-12-20T06:23:50;0.98;;;0.68;;
48847;SDS011;75039;51.970;5.660;2023-12-20T06:26:17;1.42;;;0.80;;
48847;SDS011;75039;51.970;5.660;2023-12-20T06:28:43;0.88;;;0.70;;
48847;SDS011;75039;51.970;5.660;2023-12-20T06:31:10;1.25;;;0.50;;
48847;SDS011;75039;51.970;5.660;2023-12-20T06:33:37;1.17;;;0.60;;
48847;SDS011;75039;51.970;5.660;2023-12-20T06:36:07;2.85;;;0.60;;
48847;SDS011;75039;51.970;5.660;2023-12-20T06:38:33;1.00;;;0.68;;
48847;SDS011;75039;51.970;5.660;2023-12-20T06:41:00;1.65;;;0.55;;
48847;SDS011;75039;51.970;5.660;2023-12-20T06:43:26;1.40;;;0.70;;
48847;SDS011;75039;51.970;5.660;2023-12-20T06:46:11;1.88;;;0.60;;
48847;SDS011;75039;51.970;5.660;2023-12-20T06:48:39;0.88;;;0.55;;
48847;SDS011;75039;51.970;5.660;2023-12-20T06:51:10;1.10;;;0.50;;
48847;SDS011;75039;51.970;5.660;2023-12-20T06:53:38;1.10;;;0.50;;
48847;SDS011;75039;51.970;5.660;2023-12-20T06:56:05;2.00;;;0.68;;
48847;SDS011;75039;51.970;5.660;2023-12-20T06:58:32;1.20;;;0.50;;
48847;SDS011;75039;51.970;5.660;2023-12-20T07:00:59;1.20;;;0.47;;
48847;SDS011;75039;51.970;5.660;2023-12-20T07:03:26;2.15;;;0.75;;
48847;SDS011;75039;51.970;5.660;2023-12-20T07:05:52;1.48;;;0.68;;
48847;SDS011;75039;51.970;5.660;2023-12-20T07:08:19;1.65;;;0.57;;
48847;SDS011;75039;51.970;5.660;2023-12-20T07:10:46;2.05;;;0.63;;
48847;SDS011;75039;51.970;5.660;2023-12-20T07:13:12;1.52;;;0.68;;
48847;SDS011;75039;51.970;5.660;2023-12-20T07:15:40;1.23;;;0.60;;
48847;SDS011;75039;51.970;5.660;2023-12-20T07:18:06;1.67;;;0.68;;
48847;SDS011;75039;51.970;5.660;2023-12-20T07:20:33;1.42;;;0.50;;
48847;SDS011;75039;51.970;5.660;2023-12-20T07:23:00;1.15;;;0.45;;
48847;SDS011;75039;51.970;5.660;2023-12-20T07:25:27;1.27;;;0.60;;
48847;SDS011;75039;51.970;5.660;2023-12-20T07:27:54;0.95;;;0.55;;
48847;SDS011;75039;51.970;5.660;2023-12-20T07:30:20;1.17;;;0.60;;
48847;SDS011;75039;51.970;5.660;2023-12-20T07:32:47;1.25;;;0.50;;
48847;SDS011;75039;51.970;5.660;2023-12-20T07:35:15;2.25;;;0.60;;
48847;SDS011;75039;51.970;5.660;2023-12-20T07:37:43;0.90;;;0.68;;
48847;SDS011;75039;51.970;5.660;2023-12-20T07:40:10;1.30;;;0.57;;
48847;SDS011;75039;51.970;5.660;2023-12-20T07:42:37;1.65;;;0.55;;
48847;SDS011;75039;51.970;5.660;2023-12-20T07:45:04;1.75;;;0.70;;
48847;SDS011;75039;51.970;5.660;2023-12-20T07:47:31;1.63;;;0.57;;
48847;SDS011;75039;51.970;5.660;2023-12-20T07:49:57;3.08;;;1.02;;
48847;SDS011;75039;51.970;5.660;2023-12-20T07:52:24;3.20;;;0.85;;
48847;SDS011;75039;51.970;5.660;2023-12-20T07:54:52;2.30;;;0.60;;
48847;SDS011;75039;51.970;5.660;2023-12-20T07:57:19;2.38;;;1.15;;
48847;SDS011;75039;51.970;5.660;2023-12-20T07:59:45;1.77;;;0.80;;
48847;SDS011;75039;51.970;5.660;2023-12-20T08:02:12;2.55;;;1.02;;
48847;SDS011;75039;51.970;5.660;2023-12-20T08:04:39;1.63;;;0.70;;
48847;SDS011;75039;51.970;5.660;2023-12-20T08:07:05;4.72;;;0.90;;
48847;SDS011;75039;51.970;5.660;2023-12-20T08:09:32;1.40;;;0.80;;
48847;SDS011;75039;51.970;5.660;2023-12-20T08:12:00;1.58;;;0.70;;
48847;SDS011;75039;51.970;5.660;2023-12-20T08:14:27;2.63;;;0.80;;
48847;SDS011;75039;51.970;5.660;2023-12-20T08:16:53;2.33;;;0.93;;
48847;SDS011;75039;51.970;5.660;2023-12-20T08:19:20;3.28;;;1.20;;
48847;SDS011;75039;51.970;5.660;2023-12-20T08:21:47;1.60;;;0.73;;
48847;SDS011;75039;51.970;5.660;2023-12-20T08:24:13;2.58;;;1.13;;
48847;SDS011;75039;51.970;5.660;2023-12-20T08:26:40;2.85;;;0.88;;
48847;SDS011;75039;51.970;5.660;2023-12-20T08:29:07;1.98;;;0.82;;
48847;SDS011;75039;51.970;5.660;2023-12-20T08:31:34;4.75;;;0.80;;
48847;SDS011;75039;51.970;5.660;2023-12-20T08:34:00;2.28;;;1.13;;
48847;SDS011;75039;51.970;5.660;2023-12-20T08:36:28;2.10;;;0.80;;
48847;SDS011;75039;51.970;5.660;2023-12-20T08:38:55;3.17;;;0.90;;
48847;SDS011;75039;51.970;5.660;2023-12-20T08:41:22;1.45;;;0.70;;
48847;SDS011;75039;51.970;5.660;2023-12-20T08:43:48;3.10;;;1.00;;
48847;SDS011;75039;51.970;5.660;2023-12-20T08:46:15;1.77;;;0.90;;
48847;SDS011;75039;51.970;5.660;2023-12-20T08:48:42;3.35;;;0.85;;
48847;SDS011;75039;51.970;5.660;2023-12-20T08:51:10;3.00;;;1.10;;
48847;SDS011;75039;51.970;5.660;2023-12-20T08:53:36;3.13;;;1.30;;
48847;SDS011;75039;51.970;5.660;2023-12-20T08:56:03;1.67;;;0.88;;
48847;SDS011;75039;51.970;5.660;2023-12-20T08:58:30;4.07;;;1.38;;
48847;SDS011;75039;51.970;5.660;2023-12-20T09:00:57;2.10;;;1.10;;
48847;SDS011;75039;51.970;5.660;2023-12-20T09:03:24;2.03;;;1.15;;
48847;SDS011;75039;51.970;5.660;2023-12-20T09:05:51;2.85;;;0.98;;
48847;SDS011;75039;51.970;5.660;2023-12-20T09:08:18;4.20;;;1.35;;
48847;SDS011;75039;51.970;5.660;2023-12-20T09:10:44;2.28;;;1.00;;
48847;SDS011;75039;51.970;5.660;2023-12-20T09:13:11;2.05;;;1.08;;
48847;SDS011;75039;51.970;5.660;2023-12-20T09:15:38;3.65;;;1.10;;
48847;SDS011;75039;51.970;5.660;2023-12-20T09:18:05;2.10;;;1.25;;
48847;SDS011;75039;51.970;5.660;2023-12-20T09:20:32;2.72;;;0.95;;
48847;SDS011;75039;51.970;5.660;2023-12-20T09:23:00;1.98;;;1.08;;
48847;SDS011;75039;51.970;5.660;2023-12-20T09:25:27;3.33;;;1.23;;
48847;SDS011;75039;51.970;5.660;2023-12-20T09:27:55;2.25;;;0.98;;
48847;SDS011;75039;51.970;5.660;2023-12-20T09:30:21;2.60;;;1.20;;
48847;SDS011;75039;51.970;5.660;2023-12-20T09:32:53;2.17;;;1.02;;
48847;SDS011;75039;51.970;5.660;2023-12-20T09:35:21;2.92;;;1.13;;
48847;SDS011;75039;51.970;5.660;2023-12-20T09:37:48;2.47;;;1.13;;
48847;SDS011;75039;51.970;5.660;2023-12-20T09:40:17;2.30;;;1.40;;
48847;SDS011;75039;51.970;5.660;2023-12-20T09:42:50;2.15;;;1.05;;
48847;SDS011;75039;51.970;5.660;2023-12-20T09:45:23;2.85;;;1.05;;
48847;SDS011;75039;51.970;5.660;2023-12-20T09:47:50;3.10;;;1.00;;
48847;SDS011;75039;51.970;5.660;2023-12-20T09:50:22;2.85;;;1.05;;
48847;SDS011;75039;51.970;5.660;2023-12-20T09:52:50;2.85;;;1.35;;
48847;SDS011;75039;51.970;5.660;2023-12-20T09:55:18;1.88;;;0.95;;
48847;SDS011;75039;51.970;5.660;2023-12-20T09:57:46;1.42;;;0.80;;
48847;SDS011;75039;51.970;5.660;2023-12-20T10:00:14;2.95;;;1.02;;
48847;SDS011;75039;51.970;5.660;2023-12-20T10:02:43;3.15;;;1.20;;
48847;SDS011;75039;51.970;5.660;2023-12-20T10:05:16;3.85;;;1.00;;
48847;SDS011;75039;51.970;5.660;2023-12-20T10:07:47;1.83;;;0.95;;
48847;SDS011;75039;51.970;5.660;2023-12-20T10:10:15;2.63;;;0.82;;
48847;SDS011;75039;51.970;5.660;2023-12-20T10:12:43;2.92;;;1.45;;
48847;SDS011;75039;51.970;5.660;2023-12-20T10:15:29;4.18;;;1.17;;
48847;SDS011;75039;51.970;5.660;2023-12-20T10:17:57;2.40;;;0.80;;
48847;SDS011;75039;51.970;5.660;2023-12-20T10:20:27;2.55;;;1.20;;
48847;SDS011;75039;51.970;5.660;2023-12-20T10:22:58;2.75;;;1.15;;
48847;SDS011;75039;51.970;5.660;2023-12-20T10:25:25;2.50;;;1.00;;
48847;SDS011;75039;51.970;5.660;2023-12-20T10:30:54;2.05;;;1.13;;
48847;SDS011;75039;51.970;5.660;2023-12-20T10:33:27;2.90;;;1.33;;
48847;SDS011;75039;51.970;5.660;2023-12-20T10:36:01;2.47;;;1.15;;
48847;SDS011;75039;51.970;5.660;2023-12-20T10:38:29;2.30;;;1.13;;
48847;SDS011;75039;51.970;5.660;2023-12-20T10:40:57;1.77;;;0.98;;
48847;SDS011;75039;51.970;5.660;2023-12-20T10:43:27;3.05;;;0.88;;
48847;SDS011;75039;51.970;5.660;2023-12-20T10:45:55;2.28;;;1.35;;
48847;SDS011;75039;51.970;5.660;2023-12-20T10:48:23;3.80;;;1.20;;
48847;SDS011;75039;51.970;5.660;2023-12-20T10:50:56;4.68;;;1.10;;
48847;SDS011;75039;51.970;5.660;2023-12-20T10:53:24;4.03;;;1.20;;
48847;SDS011;75039;51.970;5.660;2023-12-20T10:55:52;3.17;;;1.15;;
48847;SDS011;75039;51.970;5.660;2023-12-20T10:58:21;2.88;;;1.15;;
48847;SDS011;75039;51.970;5.660;2023-12-20T11:00:50;2.70;;;1.05;;
48847;SDS011;75039;51.970;5.660;2023-12-20T11:03:25;2.22;;;1.10;;
48847;SDS011;75039;51.970;5.660;2023-12-20T11:05:58;2.38;;;1.13;;
48847;SDS011;75039;51.970;5.660;2023-12-20T11:08:38;2.45;;;1.17;;
48847;SDS011;75039;51.970;5.660;2023-12-20T11:16:23;2.63;;;1.05;;
48847;SDS011;75039;51.970;5.660;2023-12-20T11:18:55;3.15;;;1.15;;
48847;SDS011;75039;51.970;5.660;2023-12-20T11:21:22;2.75;;;1.27;;
48847;SDS011;75039;51.970;5.660;2023-12-20T11:23:48;2.30;;;1.10;;
48847;SDS011;75039;51.970;5.660;2023-12-20T11:26:15;2.42;;;1.05;;
48847;SDS011;75039;51.970;5.660;2023-12-20T11:28:43;3.03;;;1.35;;
48847;SDS011;75039;51.970;5.660;2023-12-20T11:31:10;3.33;;;1.45;;
48847;SDS011;75039;51.970;5.660;2023-12-20T11:33:40;3.03;;;1.08;;
48847;SDS011;75039;51.970;5.660;2023-12-20T11:36:18;2.28;;;1.20;;
48847;SDS011;75039;51.970;5.660;2023-12-20T11:38:57;3.35;;;1.23;;
48847;SDS011;75039;51.970;5.660;2023-12-20T11:41:27;1.55;;;0.85;;
48847;SDS011;75039;51.970;5.660;2023-12-20T11:43:54;3.03;;;0.90;;
48847;SDS011;75039;51.970;5.660;2023-12-20T11:46:22;1.85;;;1.10;;
48847;SDS011;75039;51.970;5.660;2023-12-20T11:48:49;2.05;;;1.13;;
48847;SDS011;75039;51.970;5.660;2023-12-20T11:51:17;1.75;;;0.95;;
48847;SDS011;75039;51.970;5.660;2023-12-20T11:53:43;3.28;;;0.98;;
48847;SDS011;75039;51.970;5.660;2023-12-20T11:56:10;3.25;;;1.25;;
48847;SDS011;75039;51.970;5.660;2023-12-20T11:58:37;2.40;;;1.17;;
48847;SDS011;75039;51.970;5.660;2023-12-20T12:01:04;2.47;;;1.20;;
48847;SDS011;75039;51.970;5.660;2023-12-20T12:03:34;2.72;;;1.20;;
48847;SDS011;75039;51.970;5.660;2023-12-20T12:06:01;1.90;;;0.85;;
48847;SDS011;75039;51.970;5.660;2023-12-20T12:08:31;2.05;;;1.00;;
48847;SDS011;75039;51.970;5.660;2023-12-20T12:10:57;1.52;;;0.93;;
48847;SDS011;75039;51.970;5.660;2023-12-20T12:13:24;2.65;;;1.10;;
48847;SDS011;75039;51.970;5.660;2023-12-20T12:15:53;2.92;;;1.20;;
48847;SDS011;75039;51.970;5.660;2023-12-20T12:18:20;3.20;;;1.33;;
48847;SDS011;75039;51.970;5.660;2023-12-20T12:20:47;2.28;;;1.00;;
48847;SDS011;75039;51.970;5.660;2023-12-20T12:23:14;4.15;;;1.17;;
48847;SDS011;75039;51.970;5.660;2023-12-20T12:25:48;3.33;;;1.27;;
48847;SDS011;75039;51.970;5.660;2023-12-20T12:28:15;3.03;;;0.90;;
48847;SDS011;75039;51.970;5.660;2023-12-20T12:30:43;3.65;;;0.88;;
48847;SDS011;75039;51.970;5.660;2023-12-20T12:33:19;3.22;;;1.45;;
48847;SDS011;75039;51.970;5.660;2023-12-20T12:35:46;2.17;;;1.02;;
48847;SDS011;75039;51.970;5.660;2023-12-20T12:38:14;2.58;;;1.30;;
48847;SDS011;75039;51.970;5.660;2023-12-20T12:40:43;4.95;;;1.10;;
48847;SDS011;75039;51.970;5.660;2023-12-20T12:43:10;2.45;;;1.13;;
48847;SDS011;75039;51.970;5.660;2023-12-20T12:45:36;1.63;;;0.90;;
48847;SDS011;75039;51.970;5.660;2023-12-20T12:48:03;2.35;;;1.13;;
48847;SDS011;75039;51.970;5.660;2023-12-20T12:50:30;2.08;;;0.90;;
48847;SDS011;75039;51.970;5.660;2023-12-20T12:52:57;2.42;;;1.10;;
48847;SDS011;75039;51.970;5.660;2023-12-20T12:55:24;3.13;;;1.25;;
48847;SDS011;75039;51.970;5.660;2023-12-20T12:57:50;1.70;;;0.90;;
48847;SDS011;75039;51.970;5.660;2023-12-20T13:00:17;2.60;;;0.90;;
48847;SDS011;75039;51.970;5.660;2023-12-20T13:02:44;3.55;;;1.15;;
48847;SDS011;75039;51.970;5.660;2023-12-20T13:05:10;2.65;;;1.08;;
48847;SDS011;75039;51.970;5.660;2023-12-20T13:07:37;3.65;;;1.00;;
48847;SDS011;75039;51.970;5.660;2023-12-20T13:10:05;3.40;;;1.50;;
48847;SDS011;75039;51.970;5.660;2023-12-20T13:12:32;2.63;;;1.10;;
48847;SDS011;75039;51.970;5.660;2023-12-20T13:14:59;2.88;;;1.10;;
48847;SDS011;75039;51.970;5.660;2023-12-20T13:17:26;2.05;;;0.75;;
48847;SDS011;75039;51.970;5.660;2023-12-20T13:19:55;1.90;;;0.82;;
48847;SDS011;75039;51.970;5.660;2023-12-20T13:22:22;2.05;;;0.90;;
48847;SDS011;75039;51.970;5.660;2023-12-20T13:24:49;5.03;;;1.00;;
48847;SDS011;75039;51.970;5.660;2023-12-20T13:27:15;2.25;;;0.90;;
48847;SDS011;75039;51.970;5.660;2023-12-20T13:29:42;2.17;;;1.00;;
48847;SDS011;75039;51.970;5.660;2023-12-20T13:32:09;2.13;;;0.90;;
48847;SDS011;75039;51.970;5.660;2023-12-20T13:34:36;2.60;;;1.02;;
48847;SDS011;75039;51.970;5.660;2023-12-20T13:37:02;4.40;;;1.23;;
48847;SDS011;75039;51.970;5.660;2023-12-20T13:39:31;2.70;;;1.05;;
48847;SDS011;75039;51.970;5.660;2023-12-20T13:41:57;2.55;;;0.93;;
48847;SDS011;75039;51.970;5.660;2023-12-20T13:44:26;2.55;;;1.38;;
48847;SDS011;75039;51.970;5.660;2023-12-20T13:46:53;5.50;;;1.10;;
48847;SDS011;75039;51.970;5.660;2023-12-20T13:49:20;3.20;;;1.10;;
48847;SDS011;75039;51.970;5.660;2023-12-20T13:51:47;4.85;;;1.10;;
48847;SDS011;75039;51.970;5.660;2023-12-20T13:54:14;4.63;;;1.27;;
48847;SDS011;75039;51.970;5.660;2023-12-20T13:56:43;1.98;;;1.10;;
48847;SDS011;75039;51.970;5.660;2023-12-20T13:59:28;2.47;;;1.05;;
48847;SDS011;75039;51.970;5.660;2023-12-20T14:01:54;4.03;;;1.23;;
48847;SDS011;75039;51.970;5.660;2023-12-20T14:04:23;3.88;;;1.10;;
48847;SDS011;75039;51.970;5.660;2023-12-20T14:07:08;2.88;;;1.13;;
48847;SDS011;75039;51.970;5.660;2023-12-20T14:09:37;2.63;;;0.95;;
48847;SDS011;75039;51.970;5.660;2023-12-20T14:12:04;3.15;;;1.20;;
48847;SDS011;75039;51.970;5.660;2023-12-20T14:14:31;2.85;;;1.00;;
48847;SDS011;75039;51.970;5.660;2023-12-20T14:16:58;2.90;;;1.48;;
48847;SDS011;75039;51.970;5.660;2023-12-20T14:19:24;2.55;;;0.98;;
48847;SDS011;75039;51.970;5.660;2023-12-20T14:21:51;2.25;;;0.90;;
48847;SDS011;75039;51.970;5.660;2023-12-20T14:24:18;2.70;;;0.90;;
48847;SDS011;75039;51.970;5.660;2023-12-20T14:26:44;2.22;;;1.02;;
48847;SDS011;75039;51.970;5.660;2023-12-20T14:29:11;3.17;;;1.33;;
48847;SDS011;75039;51.970;5.660;2023-12-20T14:31:38;2.13;;;1.00;;
48847;SDS011;75039;51.970;5.660;2023-12-20T14:34:06;3.28;;;1.20;;
48847;SDS011;75039;51.970;5.660;2023-12-20T14:36:34;3.08;;;1.17;;
48847;SDS011;75039;51.970;5.660;2023-12-20T14:39:01;4.00;;;1.20;;
48847;SDS011;75039;51.970;5.660;2023-12-20T14:41:29;1.80;;;1.00;;
48847;SDS011;75039;51.970;5.660;2023-12-20T14:43:58;4.75;;;1.42;;
48847;SDS011;75039;51.970;5.660;2023-12-20T14:46:26;1.58;;;0.90;;
48847;SDS011;75039;51.970;5.660;2023-12-20T14:48:53;2.58;;;1.13;;
48847;SDS011;75039;51.970;5.660;2023-12-20T14:51:20;3.97;;;1.35;;
48847;SDS011;75039;51.970;5.660;2023-12-20T14:53:49;3.08;;;0.93;;
48847;SDS011;75039;51.970;5.660;2023-12-20T14:56:15;3.20;;;1.00;;
48847;SDS011;75039;51.970;5.660;2023-12-20T14:58:42;2.70;;;1.10;;